sensor_id;sensor_type;location;lat;lon;timestamp;P1;durP1;ratioP1;P2;durP2;ratioP2
40669;SDS011;26355;45.528;9.234;2023-06-04T00:01:21;27.52;;;18.48;;
40669;SDS011;26355;45.528;9.234;2023-06-04T00:03:46;27.60;;;18.77;;
40669;SDS011;26355;45.528;9.234;2023-06-04T00:06:12;30.90;;;20.60;;
40669;SDS011;26355;45.528;9.234;2023-06-04T00:08:38;28.98;;;20.38;;
40669;SDS011;26355;45.528;9.234;2023-06-04T00:11:04;28.85;;;20.55;;
40669;SDS011;26355;45.528;9.234;2023-06-04T00:13:29;28.70;;;20.33;;
40669;SDS011;26355;45.528;9.234;2023-06-04T00:15:55;29.67;;;21.52;;
40669;SDS011;26355;45.528;9.234;2023-06-04T00:18:21;28.48;;;20.63;;
40669;SDS011;26355;45.528;9.234;2023-06-04T00:20:46;30.27;;;22.02;;
40669;SDS011;26355;45.528;9.234;2023-06-04T00:23:12;30.45;;;22.08;;
40669;SDS011;26355;45.528;9.234;2023-06-04T00:25:37;31.48;;;21.85;;
40669;SDS011;26355;45.528;9.234;2023-06-04T00:28:03;29.65;;;21.30;;
40669;SDS011;26355;45.528;9.234;2023-06-04T00:30:29;30.88;;;21.98;;
40669;SDS011;26355;45.528;9.234;2023-06-04T00:32:54;29.17;;;20.95;;
40669;SDS011;26355;45.528;9.234;2023-06-04T00:35:20;29.45;;;21.38;;
40669;SDS011;26355;45.528;9.234;2023-06-04T00:37:45;29.73;;;21.13;;
40669;SDS011;26355;45.528;9.234;2023-06-04T00:40:11;26.92;;;19.15;;
40669;SDS011;26355;45.528;9.234;2023-06-04T00:42:37;28.48;;;20.45;;
40669;SDS011;26355;45.528;9.234;2023-06-04T00:45:03;27.08;;;20.35;;
40669;SDS011;26355;45.528;9.234;2023-06-04T00:47:32;29.23;;;19.58;;
40669;SDS011;26355;45.528;9.234;2023-06-04T00:49:58;26.75;;;18.63;;
40669;SDS011;26355;45.528;9.234;2023-06-04T00:52:24;28.88;;;20.50;;
40669;SDS011;26355;45.528;9.234;2023-06-04T00:54:51;27.50;;;20.67;;
40669;SDS011;26355;45.528;9.234;2023-06-04T00:57:17;27.90;;;19.73;;
40669;SDS011;26355;45.528;9.234;2023-06-04T00:59:42;28.88;;;19.95;;
40669;SDS011;26355;45.528;9.234;2023-06-04T01:02:09;26.42;;;19.85;;
40669;SDS011;26355;45.528;9.234;2023-06-04T01:04:59;29.13;;;19.23;;
40669;SDS011;26355;45.528;9.234;2023-06-04T01:07:26;28.38;;;19.95;;
40669;SDS011;26355;45.528;9.234;2023-06-04T01:09:55;29.20;;;19.58;;
40669;SDS011;26355;45.528;9.234;2023-06-04T01:12:21;26.63;;;17.80;;
40669;SDS011;26355;45.528;9.234;2023-06-04T01:14:48;26.73;;;18.80;;
40669;SDS011;26355;45.528;9.234;2023-06-04T01:17:22;26.73;;;18.92;;
40669;SDS011;26355;45.528;9.234;2023-06-04T01:20:07;28.48;;;19.02;;
40669;SDS011;26355;45.528;9.234;2023-06-04T01:25:32;27.88;;;18.58;;
40669;SDS011;26355;45.528;9.234;2023-06-04T01:28:02;28.20;;;19.88;;
40669;SDS011;26355;45.528;9.234;2023-06-04T01:33:01;27.20;;;18.77;;
40669;SDS011;26355;45.528;9.234;2023-06-04T01:37:54;28.35;;;18.85;;
40669;SDS011;26355;45.528;9.234;2023-06-04T01:40:20;28.27;;;18.67;;
40669;SDS011;26355;45.528;9.234;2023-06-04T01:42:48;28.33;;;19.48;;
40669;SDS011;26355;45.528;9.234;2023-06-04T01:45:14;27.73;;;17.92;;
40669;SDS011;26355;45.528;9.234;2023-06-04T01:47:40;27.83;;;18.27;;
40669;SDS011;26355;45.528;9.234;2023-06-04T01:50:06;27.05;;;18.85;;
40669;SDS011;26355;45.528;9.234;2023-06-04T01:52:37;26.77;;;18.45;;
40669;SDS011;26355;45.528;9.234;2023-06-04T01:55:04;26.95;;;18.60;;
40669;SDS011;26355;45.528;9.234;2023-06-04T01:57:32;27.50;;;18.92;;
40669;SDS011;26355;45.528;9.234;2023-06-04T01:59:58;29.42;;;18.10;;
40669;SDS011;26355;45.528;9.234;2023-06-04T02:02:27;25.90;;;18.58;;
40669;SDS011;26355;45.528;9.234;2023-06-04T02:04:52;29.00;;;19.55;;
40669;SDS011;26355;45.528;9.234;2023-06-04T02:07:21;28.20;;;19.17;;
40669;SDS011;26355;45.528;9.234;2023-06-04T02:09:47;28.63;;;19.58;;
40669;SDS011;26355;45.528;9.234;2023-06-04T02:12:13;26.30;;;18.80;;
40669;SDS011;26355;45.528;9.234;2023-06-04T02:14:38;27.05;;;18.65;;
40669;SDS011;26355;45.528;9.234;2023-06-04T02:17:06;27.63;;;19.00;;
40669;SDS011;26355;45.528;9.234;2023-06-04T02:19:37;28.88;;;19.08;;
40669;SDS011;26355;45.528;9.234;2023-06-04T02:22:09;25.35;;;17.88;;
40669;SDS011;26355;45.528;9.234;2023-06-04T02:24:38;28.02;;;18.55;;
40669;SDS011;26355;45.528;9.234;2023-06-04T02:27:04;29.38;;;18.60;;
40669;SDS011;26355;45.528;9.234;2023-06-04T02:31:56;27.95;;;17.63;;
40669;SDS011;26355;45.528;9.234;2023-06-04T02:34:22;27.10;;;19.38;;
40669;SDS011;26355;45.528;9.234;2023-06-04T02:36:48;26.52;;;19.30;;
40669;SDS011;26355;45.528;9.234;2023-06-04T02:39:15;27.80;;;18.63;;
40669;SDS011;26355;45.528;9.234;2023-06-04T02:41:44;25.13;;;17.98;;
40669;SDS011;26355;45.528;9.234;2023-06-04T02:44:10;28.45;;;19.15;;
40669;SDS011;26355;45.528;9.234;2023-06-04T02:46:36;28.75;;;18.27;;
40669;SDS011;26355;45.528;9.234;2023-06-04T02:49:02;26.35;;;18.20;;
40669;SDS011;26355;45.528;9.234;2023-06-04T02:51:28;27.90;;;19.75;;
40669;SDS011;26355;45.528;9.234;2023-06-04T02:53:54;25.20;;;18.10;;
40669;SDS011;26355;45.528;9.234;2023-06-04T02:56:20;28.55;;;20.05;;
40669;SDS011;26355;45.528;9.234;2023-06-04T02:58:49;26.00;;;19.15;;
40669;SDS011;26355;45.528;9.234;2023-06-04T03:01:20;27.88;;;19.00;;
40669;SDS011;26355;45.528;9.234;2023-06-04T03:03:51;26.08;;;18.50;;
40669;SDS011;26355;45.528;9.234;2023-06-04T03:06:18;25.95;;;17.20;;
40669;SDS011;26355;45.528;9.234;2023-06-04T03:08:49;24.95;;;18.02;;
40669;SDS011;26355;45.528;9.234;2023-06-04T03:11:16;28.23;;;18.95;;
40669;SDS011;26355;45.528;9.234;2023-06-04T03:13:46;27.30;;;19.02;;
40669;SDS011;26355;45.528;9.234;2023-06-04T03:16:12;27.23;;;17.15;;
40669;SDS011;26355;45.528;9.234;2023-06-04T03:18:42;25.70;;;17.45;;
40669;SDS011;26355;45.528;9.234;2023-06-04T03:21:09;26.35;;;18.60;;
40669;SDS011;26355;45.528;9.234;2023-06-04T03:23:36;26.48;;;18.88;;
40669;SDS011;26355;45.528;9.234;2023-06-04T03:26:02;27.25;;;19.65;;
40669;SDS011;26355;45.528;9.234;2023-06-04T03:28:29;25.77;;;18.27;;
40669;SDS011;26355;45.528;9.234;2023-06-04T03:30:56;22.33;;;14.50;;
40669;SDS011;26355;45.528;9.234;2023-06-04T03:33:21;22.20;;;14.60;;
40669;SDS011;26355;45.528;9.234;2023-06-04T03:35:47;23.27;;;14.77;;
40669;SDS011;26355;45.528;9.234;2023-06-04T03:38:13;23.40;;;15.38;;
40669;SDS011;26355;45.528;9.234;2023-06-04T03:40:40;25.75;;;17.45;;
40669;SDS011;26355;45.528;9.234;2023-06-04T03:43:05;26.23;;;17.48;;
40669;SDS011;26355;45.528;9.234;2023-06-04T03:45:31;25.65;;;17.00;;
40669;SDS011;26355;45.528;9.234;2023-06-04T03:47:56;25.10;;;17.17;;
40669;SDS011;26355;45.528;9.234;2023-06-04T03:50:22;27.20;;;17.92;;
40669;SDS011;26355;45.528;9.234;2023-06-04T03:52:48;25.98;;;16.75;;
40669;SDS011;26355;45.528;9.234;2023-06-04T03:55:14;20.87;;;13.07;;
40669;SDS011;26355;45.528;9.234;2023-06-04T03:57:40;19.42;;;10.20;;
40669;SDS011;26355;45.528;9.234;2023-06-04T04:00:06;17.02;;;8.75;;
40669;SDS011;26355;45.528;9.234;2023-06-04T04:02:33;15.02;;;6.25;;
40669;SDS011;26355;45.528;9.234;2023-06-04T04:04:58;14.77;;;5.55;;
40669;SDS011;26355;45.528;9.234;2023-06-04T04:07:24;14.50;;;5.65;;
40669;SDS011;26355;45.528;9.234;2023-06-04T04:09:51;13.70;;;5.38;;
40669;SDS011;26355;45.528;9.234;2023-06-04T04:12:16;13.20;;;5.38;;
40669;SDS011;26355;45.528;9.234;2023-06-04T04:14:42;12.00;;;4.78;;
40669;SDS011;26355;45.528;9.234;2023-06-04T04:17:08;15.65;;;4.82;;
40669;SDS011;26355;45.528;9.234;2023-06-04T04:19:33;11.15;;;4.30;;
40669;SDS011;26355;45.528;9.234;2023-06-04T04:21:59;11.68;;;3.92;;
40669;SDS011;26355;45.528;9.234;2023-06-04T04:24:25;11.02;;;3.83;;
40669;SDS011;26355;45.528;9.234;2023-06-04T04:26:52;10.80;;;3.60;;
40669;SDS011;26355;45.528;9.234;2023-06-04T04:29:21;9.18;;;3.50;;
40669;SDS011;26355;45.528;9.234;2023-06-04T04:31:53;10.23;;;3.38;;
40669;SDS011;26355;45.528;9.234;2023-06-04T04:34:22;9.98;;;3.28;;
40669;SDS011;26355;45.528;9.234;2023-06-04T04:36:50;8.68;;;3.17;;
40669;SDS011;26355;45.528;9.234;2023-06-04T04:39:21;7.67;;;2.77;;
40669;SDS011;26355;45.528;9.234;2023-06-04T04:41:49;6.60;;;2.60;;
40669;SDS011;26355;45.528;9.234;2023-06-04T04:44:14;5.85;;;2.30;;
40669;SDS011;26355;45.528;9.234;2023-06-04T04:46:40;6.15;;;2.22;;
40669;SDS011;26355;45.528;9.234;2023-06-04T04:49:06;6.70;;;2.55;;
40669;SDS011;26355;45.528;9.234;2023-06-04T04:51:31;8.25;;;2.80;;
40669;SDS011;26355;45.528;9.234;2023-06-04T04:53:57;8.48;;;3.03;;
40669;SDS011;26355;45.528;9.234;2023-06-04T04:56:26;8.88;;;2.83;;
40669;SDS011;26355;45.528;9.234;2023-06-04T04:58:52;8.40;;;2.78;;
40669;SDS011;26355;45.528;9.234;2023-06-04T05:01:18;7.72;;;2.78;;
40669;SDS011;26355;45.528;9.234;2023-06-04T05:03:44;6.97;;;2.50;;
40669;SDS011;26355;45.528;9.234;2023-06-04T05:06:09;7.80;;;2.65;;
40669;SDS011;26355;45.528;9.234;2023-06-04T05:08:35;5.90;;;2.15;;
40669;SDS011;26355;45.528;9.234;2023-06-04T05:11:01;7.22;;;2.08;;
40669;SDS011;26355;45.528;9.234;2023-06-04T05:13:27;9.63;;;2.50;;
40669;SDS011;26355;45.528;9.234;2023-06-04T05:15:52;6.25;;;2.00;;
40669;SDS011;26355;45.528;9.234;2023-06-04T05:18:18;5.03;;;1.90;;
40669;SDS011;26355;45.528;9.234;2023-06-04T05:20:53;7.50;;;2.55;;
40669;SDS011;26355;45.528;9.234;2023-06-04T05:23:22;5.28;;;2.03;;
40669;SDS011;26355;45.528;9.234;2023-06-04T05:25:49;7.57;;;2.03;;
40669;SDS011;26355;45.528;9.234;2023-06-04T05:28:15;5.63;;;2.05;;
40669;SDS011;26355;45.528;9.234;2023-06-04T05:30:40;5.82;;;1.92;;
40669;SDS011;26355;45.528;9.234;2023-06-04T05:33:06;4.78;;;2.00;;
40669;SDS011;26355;45.528;9.234;2023-06-04T05:35:43;7.00;;;2.25;;
40669;SDS011;26355;45.528;9.234;2023-06-04T05:38:13;8.25;;;2.30;;
40669;SDS011;26355;45.528;9.234;2023-06-04T05:40:43;5.90;;;2.13;;
40669;SDS011;26355;45.528;9.234;2023-06-04T05:43:10;5.97;;;2.03;;
40669;SDS011;26355;45.528;9.234;2023-06-04T05:45:36;6.65;;;2.00;;
40669;SDS011;26355;45.528;9.234;2023-06-04T05:48:02;6.97;;;2.05;;
40669;SDS011;26355;45.528;9.234;2023-06-04T05:50:28;6.05;;;2.10;;
40669;SDS011;26355;45.528;9.234;2023-06-04T05:52:53;5.82;;;1.90;;
40669;SDS011;26355;45.528;9.234;2023-06-04T05:55:19;5.78;;;2.05;;
40669;SDS011;26355;45.528;9.234;2023-06-04T05:57:45;7.30;;;2.30;;
40669;SDS011;26355;45.528;9.234;2023-06-04T06:00:10;6.35;;;2.05;;
40669;SDS011;26355;45.528;9.234;2023-06-04T06:02:36;5.70;;;2.15;;
40669;SDS011;26355;45.528;9.234;2023-06-04T06:05:05;7.43;;;2.20;;
40669;SDS011;26355;45.528;9.234;2023-06-04T06:07:33;7.15;;;2.08;;
40669;SDS011;26355;45.528;9.234;2023-06-04T06:09:59;5.05;;;2.28;;
40669;SDS011;26355;45.528;9.234;2023-06-04T06:12:24;6.28;;;2.20;;
40669;SDS011;26355;45.528;9.234;2023-06-04T06:14:50;5.88;;;2.33;;
40669;SDS011;26355;45.528;9.234;2023-06-04T06:17:15;4.75;;;1.90;;
40669;SDS011;26355;45.528;9.234;2023-06-04T06:19:41;3.72;;;1.80;;
40669;SDS011;26355;45.528;9.234;2023-06-04T06:22:07;4.97;;;1.88;;
40669;SDS011;26355;45.528;9.234;2023-06-04T06:24:33;6.40;;;2.42;;
40669;SDS011;26355;45.528;9.234;2023-06-04T06:26:59;4.07;;;1.77;;
40669;SDS011;26355;45.528;9.234;2023-06-04T06:29:24;3.33;;;1.50;;
40669;SDS011;26355;45.528;9.234;2023-06-04T06:31:50;5.00;;;1.90;;
40669;SDS011;26355;45.528;9.234;2023-06-04T06:34:15;4.18;;;1.58;;
40669;SDS011;26355;45.528;9.234;2023-06-04T06:36:41;5.60;;;1.77;;
40669;SDS011;26355;45.528;9.234;2023-06-04T06:39:07;4.80;;;1.42;;
40669;SDS011;26355;45.528;9.234;2023-06-04T06:41:33;4.28;;;1.50;;
40669;SDS011;26355;45.528;9.234;2023-06-04T06:43:59;6.03;;;1.60;;
40669;SDS011;26355;45.528;9.234;2023-06-04T06:46:25;2.65;;;1.20;;
40669;SDS011;26355;45.528;9.234;2023-06-04T06:48:50;4.55;;;1.77;;
40669;SDS011;26355;45.528;9.234;2023-06-04T06:51:16;4.30;;;1.23;;
40669;SDS011;26355;45.528;9.234;2023-06-04T06:53:42;3.42;;;1.30;;
40669;SDS011;26355;45.528;9.234;2023-06-04T06:56:08;3.67;;;1.45;;
40669;SDS011;26355;45.528;9.234;2023-06-04T06:58:33;4.55;;;1.50;;
40669;SDS011;26355;45.528;9.234;2023-06-04T07:00:59;3.78;;;1.30;;
40669;SDS011;26355;45.528;9.234;2023-06-04T07:03:25;3.78;;;1.42;;
40669;SDS011;26355;45.528;9.234;2023-06-04T07:05:51;2.60;;;1.40;;
40669;SDS011;26355;45.528;9.234;2023-06-04T07:08:17;4.00;;;1.65;;
40669;SDS011;26355;45.528;9.234;2023-06-04T07:10:42;4.53;;;1.98;;
40669;SDS011;26355;45.528;9.234;2023-06-04T07:13:08;5.50;;;1.50;;
40669;SDS011;26355;45.528;9.234;2023-06-04T07:15:34;5.20;;;1.98;;
40669;SDS011;26355;45.528;9.234;2023-06-04T07:18:00;4.70;;;1.70;;
40669;SDS011;26355;45.528;9.234;2023-06-04T07:20:25;4.47;;;1.80;;
40669;SDS011;26355;45.528;9.234;2023-06-04T07:22:51;4.88;;;1.85;;
40669;SDS011;26355;45.528;9.234;2023-06-04T07:25:16;4.50;;;2.13;;
40669;SDS011;26355;45.528;9.234;2023-06-04T07:27:42;6.75;;;2.35;;
40669;SDS011;26355;45.528;9.234;2023-06-04T07:30:08;5.45;;;2.00;;
40669;SDS011;26355;45.528;9.234;2023-06-04T07:32:34;6.25;;;2.10;;
40669;SDS011;26355;45.528;9.234;2023-06-04T07:35:01;7.20;;;2.70;;
40669;SDS011;26355;45.528;9.234;2023-06-04T07:37:27;6.82;;;2.30;;
40669;SDS011;26355;45.528;9.234;2023-06-04T07:40:11;7.38;;;2.50;;
40669;SDS011;26355;45.528;9.234;2023-06-04T07:42:36;7.28;;;2.50;;
40669;SDS011;26355;45.528;9.234;2023-06-04T07:45:03;6.07;;;2.15;;
40669;SDS011;26355;45.528;9.234;2023-06-04T07:49:55;6.57;;;2.90;;
40669;SDS011;26355;45.528;9.234;2023-06-04T07:52:21;8.48;;;2.83;;
40669;SDS011;26355;45.528;9.234;2023-06-04T07:54:46;7.32;;;2.72;;
40669;SDS011;26355;45.528;9.234;2023-06-04T07:57:12;9.70;;;2.97;;
40669;SDS011;26355;45.528;9.234;2023-06-04T07:59:37;9.43;;;3.00;;
40669;SDS011;26355;45.528;9.234;2023-06-04T08:02:03;9.35;;;3.53;;
40669;SDS011;26355;45.528;9.234;2023-06-04T08:04:29;11.07;;;4.18;;
40669;SDS011;26355;45.528;9.234;2023-06-04T08:06:54;10.75;;;3.30;;
40669;SDS011;26355;45.528;9.234;2023-06-04T08:09:21;14.63;;;3.47;;
40669;SDS011;26355;45.528;9.234;2023-06-04T08:11:46;11.40;;;4.07;;
40669;SDS011;26355;45.528;9.234;2023-06-04T08:16:39;12.32;;;4.18;;
40669;SDS011;26355;45.528;9.234;2023-06-04T08:19:05;11.32;;;4.30;;
40669;SDS011;26355;45.528;9.234;2023-06-04T08:21:41;13.35;;;4.32;;
40669;SDS011;26355;45.528;9.234;2023-06-04T08:24:08;12.18;;;4.53;;
40669;SDS011;26355;45.528;9.234;2023-06-04T08:29:18;14.20;;;6.20;;
40669;SDS011;26355;45.528;9.234;2023-06-04T08:31:44;15.40;;;6.18;;
40669;SDS011;26355;45.528;9.234;2023-06-04T08:34:10;13.82;;;5.80;;
40669;SDS011;26355;45.528;9.234;2023-06-04T08:36:36;12.55;;;5.20;;
40669;SDS011;26355;45.528;9.234;2023-06-04T08:39:01;14.38;;;5.30;;
40669;SDS011;26355;45.528;9.234;2023-06-04T08:41:28;14.98;;;6.10;;
40669;SDS011;26355;45.528;9.234;2023-06-04T08:43:58;14.63;;;5.95;;
40669;SDS011;26355;45.528;9.234;2023-06-04T08:46:26;17.67;;;7.00;;
40669;SDS011;26355;45.528;9.234;2023-06-04T08:48:53;15.50;;;6.18;;
40669;SDS011;26355;45.528;9.234;2023-06-04T08:51:21;19.02;;;10.13;;
40669;SDS011;26355;45.528;9.234;2023-06-04T08:53:47;15.40;;;6.00;;
40669;SDS011;26355;45.528;9.234;2023-06-04T08:56:15;15.63;;;6.05;;
40669;SDS011;26355;45.528;9.234;2023-06-04T08:58:42;15.43;;;6.30;;
40669;SDS011;26355;45.528;9.234;2023-06-04T09:03:36;16.50;;;6.75;;
40669;SDS011;26355;45.528;9.234;2023-06-04T09:06:02;16.23;;;6.57;;
40669;SDS011;26355;45.528;9.234;2023-06-04T09:08:31;15.55;;;6.28;;
40669;SDS011;26355;45.528;9.234;2023-06-04T09:10:58;16.00;;;6.82;;
40669;SDS011;26355;45.528;9.234;2023-06-04T09:13:27;16.48;;;8.18;;
40669;SDS011;26355;45.528;9.234;2023-06-04T09:15:59;17.48;;;9.15;;
40669;SDS011;26355;45.528;9.234;2023-06-04T09:18:26;15.65;;;7.53;;
40669;SDS011;26355;45.528;9.234;2023-06-04T09:23:31;16.70;;;7.95;;
40669;SDS011;26355;45.528;9.234;2023-06-04T09:26:06;16.27;;;7.15;;
40669;SDS011;26355;45.528;9.234;2023-06-04T09:28:33;16.52;;;7.75;;
40669;SDS011;26355;45.528;9.234;2023-06-04T09:30:59;18.98;;;7.30;;
40669;SDS011;26355;45.528;9.234;2023-06-04T09:33:27;17.02;;;7.93;;
40669;SDS011;26355;45.528;9.234;2023-06-04T09:35:57;18.53;;;8.77;;
40669;SDS011;26355;45.528;9.234;2023-06-04T09:38:23;17.77;;;8.50;;
40669;SDS011;26355;45.528;9.234;2023-06-04T09:40:57;17.75;;;7.95;;
40669;SDS011;26355;45.528;9.234;2023-06-04T09:43:25;16.65;;;7.45;;
40669;SDS011;26355;45.528;9.234;2023-06-04T09:45:51;15.98;;;7.35;;
40669;SDS011;26355;45.528;9.234;2023-06-04T09:48:20;17.80;;;7.72;;
40669;SDS011;26355;45.528;9.234;2023-06-04T09:50:46;15.93;;;7.07;;
40669;SDS011;26355;45.528;9.234;2023-06-04T09:53:19;16.33;;;7.80;;
40669;SDS011;26355;45.528;9.234;2023-06-04T09:56:00;18.10;;;7.75;;
40669;SDS011;26355;45.528;9.234;2023-06-04T09:58:27;16.33;;;7.70;;
40669;SDS011;26355;45.528;9.234;2023-06-04T10:00:56;15.47;;;7.43;;
40669;SDS011;26355;45.528;9.234;2023-06-04T10:03:42;16.42;;;8.18;;
40669;SDS011;26355;45.528;9.234;2023-06-04T10:06:14;17.88;;;8.38;;
40669;SDS011;26355;45.528;9.234;2023-06-04T10:08:43;17.70;;;8.30;;
40669;SDS011;26355;45.528;9.234;2023-06-04T10:13:53;19.40;;;9.40;;
40669;SDS011;26355;45.528;9.234;2023-06-04T10:16:28;20.08;;;9.48;;
40669;SDS011;26355;45.528;9.234;2023-06-04T10:18:56;18.02;;;9.65;;
40669;SDS011;26355;45.528;9.234;2023-06-04T10:21:23;20.88;;;10.18;;
40669;SDS011;26355;45.528;9.234;2023-06-04T10:23:52;23.02;;;10.98;;
40669;SDS011;26355;45.528;9.234;2023-06-04T10:26:18;21.95;;;11.88;;
40669;SDS011;26355;45.528;9.234;2023-06-04T10:28:44;20.92;;;11.98;;
40669;SDS011;26355;45.528;9.234;2023-06-04T10:31:10;21.83;;;12.38;;
40669;SDS011;26355;45.528;9.234;2023-06-04T10:33:36;21.27;;;11.40;;
40669;SDS011;26355;45.528;9.234;2023-06-04T10:36:18;22.15;;;12.52;;
40669;SDS011;26355;45.528;9.234;2023-06-04T10:38:48;22.40;;;12.45;;
40669;SDS011;26355;45.528;9.234;2023-06-04T10:41:15;25.25;;;13.07;;
40669;SDS011;26355;45.528;9.234;2023-06-04T10:43:45;22.17;;;13.13;;
40669;SDS011;26355;45.528;9.234;2023-06-04T10:46:14;21.42;;;12.35;;
40669;SDS011;26355;45.528;9.234;2023-06-04T10:48:51;19.48;;;10.80;;
40669;SDS011;26355;45.528;9.234;2023-06-04T10:51:33;17.27;;;8.90;;
40669;SDS011;26355;45.528;9.234;2023-06-04T10:54:02;15.88;;;7.07;;
40669;SDS011;26355;45.528;9.234;2023-06-04T10:56:28;16.90;;;7.82;;
40669;SDS011;26355;45.528;9.234;2023-06-04T10:58:59;15.18;;;7.20;;
40669;SDS011;26355;45.528;9.234;2023-06-04T11:01:26;16.85;;;7.78;;
40669;SDS011;26355;45.528;9.234;2023-06-04T11:03:53;16.42;;;7.95;;
40669;SDS011;26355;45.528;9.234;2023-06-04T11:06:22;17.35;;;8.73;;
40669;SDS011;26355;45.528;9.234;2023-06-04T11:09:02;16.60;;;8.80;;
40669;SDS011;26355;45.528;9.234;2023-06-04T11:11:29;17.58;;;8.80;;
40669;SDS011;26355;45.528;9.234;2023-06-04T11:13:54;18.13;;;8.82;;
40669;SDS011;26355;45.528;9.234;2023-06-04T11:16:20;18.00;;;9.68;;
40669;SDS011;26355;45.528;9.234;2023-06-04T11:18:56;18.05;;;9.27;;
40669;SDS011;26355;45.528;9.234;2023-06-04T11:21:23;17.27;;;6.82;;
40669;SDS011;26355;45.528;9.234;2023-06-04T11:23:54;15.98;;;7.55;;
40669;SDS011;26355;45.528;9.234;2023-06-04T11:26:20;14.77;;;6.80;;
40669;SDS011;26355;45.528;9.234;2023-06-04T11:28:48;14.85;;;5.70;;
40669;SDS011;26355;45.528;9.234;2023-06-04T11:31:14;15.27;;;5.50;;
40669;SDS011;26355;45.528;9.234;2023-06-04T11:33:46;14.52;;;5.38;;
40669;SDS011;26355;45.528;9.234;2023-06-04T11:39:08;14.65;;;5.70;;
40669;SDS011;26355;45.528;9.234;2023-06-04T11:41:34;15.88;;;7.13;;
40669;SDS011;26355;45.528;9.234;2023-06-04T11:44:05;15.23;;;6.60;;
40669;SDS011;26355;45.528;9.234;2023-06-04T11:46:52;15.25;;;6.70;;
40669;SDS011;26355;45.528;9.234;2023-06-04T11:49:17;17.90;;;6.95;;
40669;SDS011;26355;45.528;9.234;2023-06-04T11:51:51;16.25;;;7.88;;
40669;SDS011;26355;45.528;9.234;2023-06-04T11:54:17;15.65;;;7.07;;
40669;SDS011;26355;45.528;9.234;2023-06-04T11:56:48;17.38;;;7.65;;
40669;SDS011;26355;45.528;9.234;2023-06-04T11:59:15;15.50;;;6.50;;
40669;SDS011;26355;45.528;9.234;2023-06-04T12:01:46;13.90;;;5.55;;
40669;SDS011;26355;45.528;9.234;2023-06-04T12:04:13;12.63;;;4.60;;
40669;SDS011;26355;45.528;9.234;2023-06-04T12:06:50;14.23;;;4.70;;
40669;SDS011;26355;45.528;9.234;2023-06-04T12:09:22;13.68;;;4.57;;
40669;SDS011;26355;45.528;9.234;2023-06-04T12:11:49;13.98;;;4.40;;
40669;SDS011;26355;45.528;9.234;2023-06-04T12:14:15;12.02;;;4.50;;
40669;SDS011;26355;45.528;9.234;2023-06-04T12:16:57;11.50;;;3.92;;
40669;SDS011;26355;45.528;9.234;2023-06-04T12:19:25;12.73;;;4.60;;
40669;SDS011;26355;45.528;9.234;2023-06-04T12:22:04;11.38;;;4.38;;
40669;SDS011;26355;45.528;9.234;2023-06-04T12:24:35;12.20;;;3.60;;
40669;SDS011;26355;45.528;9.234;2023-06-04T12:27:12;9.23;;;3.63;;
40669;SDS011;26355;45.528;9.234;2023-06-04T12:29:38;11.65;;;4.40;;
40669;SDS011;26355;45.528;9.234;2023-06-04T12:32:05;12.93;;;4.65;;
40669;SDS011;26355;45.528;9.234;2023-06-04T12:34:36;12.00;;;4.57;;
40669;SDS011;26355;45.528;9.234;2023-06-04T12:37:03;12.27;;;4.90;;
40669;SDS011;26355;45.528;9.234;2023-06-04T12:39:30;14.80;;;5.55;;
40669;SDS011;26355;45.528;9.234;2023-06-04T12:41:57;15.35;;;5.78;;
40669;SDS011;26355;45.528;9.234;2023-06-04T12:44:22;14.23;;;5.68;;
40669;SDS011;26355;45.528;9.234;2023-06-04T12:46:48;15.27;;;6.93;;
40669;SDS011;26355;45.528;9.234;2023-06-04T12:49:13;15.70;;;6.80;;
40669;SDS011;26355;45.528;9.234;2023-06-04T12:51:39;16.20;;;6.60;;
40669;SDS011;26355;45.528;9.234;2023-06-04T12:54:04;14.35;;;5.97;;
40669;SDS011;26355;45.528;9.234;2023-06-04T12:56:30;15.30;;;5.53;;
40669;SDS011;26355;45.528;9.234;2023-06-04T12:58:56;14.52;;;6.20;;
40669;SDS011;26355;45.528;9.234;2023-06-04T13:01:21;17.02;;;6.68;;
40669;SDS011;26355;45.528;9.234;2023-06-04T13:03:47;13.55;;;5.00;;
40669;SDS011;26355;45.528;9.234;2023-06-04T13:06:12;13.02;;;4.95;;
40669;SDS011;26355;45.528;9.234;2023-06-04T13:08:38;13.57;;;4.72;;
40669;SDS011;26355;45.528;9.234;2023-06-04T13:11:04;12.85;;;4.10;;
40669;SDS011;26355;45.528;9.234;2023-06-04T13:13:30;10.55;;;4.05;;
40669;SDS011;26355;45.528;9.234;2023-06-04T13:15:56;11.25;;;4.32;;
40669;SDS011;26355;45.528;9.234;2023-06-04T13:18:21;14.07;;;5.70;;
40669;SDS011;26355;45.528;9.234;2023-06-04T13:20:47;12.30;;;4.50;;
40669;SDS011;26355;45.528;9.234;2023-06-04T13:23:14;12.68;;;4.68;;
40669;SDS011;26355;45.528;9.234;2023-06-04T13:25:40;12.45;;;4.45;;
40669;SDS011;26355;45.528;9.234;2023-06-04T13:28:05;11.68;;;4.28;;
40669;SDS011;26355;45.528;9.234;2023-06-04T13:30:32;11.75;;;4.65;;
40669;SDS011;26355;45.528;9.234;2023-06-04T13:33:00;14.45;;;5.07;;
40669;SDS011;26355;45.528;9.234;2023-06-04T13:35:26;13.07;;;5.40;;
40669;SDS011;26355;45.528;9.234;2023-06-04T13:37:51;13.07;;;4.85;;
40669;SDS011;26355;45.528;9.234;2023-06-04T13:40:17;12.38;;;4.75;;
40669;SDS011;26355;45.528;9.234;2023-06-04T13:42:42;14.18;;;5.15;;
40669;SDS011;26355;45.528;9.234;2023-06-04T13:45:08;13.05;;;4.88;;
40669;SDS011;26355;45.528;9.234;2023-06-04T13:47:34;11.82;;;4.70;;
40669;SDS011;26355;45.528;9.234;2023-06-04T13:50:00;12.57;;;4.95;;
40669;SDS011;26355;45.528;9.234;2023-06-04T13:52:26;11.95;;;4.72;;
40669;SDS011;26355;45.528;9.234;2023-06-04T13:54:53;11.02;;;4.13;;
40669;SDS011;26355;45.528;9.234;2023-06-04T13:57:19;11.43;;;4.40;;
40669;SDS011;26355;45.528;9.234;2023-06-04T13:59:45;14.27;;;4.80;;
40669;SDS011;26355;45.528;9.234;2023-06-04T14:02:11;13.30;;;5.00;;
40669;SDS011;26355;45.528;9.234;2023-06-04T14:04:36;14.35;;;5.18;;
40669;SDS011;26355;45.528;9.234;2023-06-04T14:07:02;13.60;;;5.10;;
40669;SDS011;26355;45.528;9.234;2023-06-04T14:09:28;16.27;;;6.68;;
40669;SDS011;26355;45.528;9.234;2023-06-04T14:11:53;12.18;;;4.93;;
40669;SDS011;26355;45.528;9.234;2023-06-04T14:14:22;14.48;;;5.50;;
40669;SDS011;26355;45.528;9.234;2023-06-04T14:16:48;13.13;;;4.68;;
40669;SDS011;26355;45.528;9.234;2023-06-04T14:19:14;15.70;;;6.72;;
40669;SDS011;26355;45.528;9.234;2023-06-04T14:21:43;13.18;;;5.20;;
40669;SDS011;26355;45.528;9.234;2023-06-04T14:24:09;13.13;;;5.07;;
40669;SDS011;26355;45.528;9.234;2023-06-04T14:26:36;14.45;;;5.05;;
40669;SDS011;26355;45.528;9.234;2023-06-04T14:29:01;14.25;;;5.13;;
40669;SDS011;26355;45.528;9.234;2023-06-04T14:31:27;12.13;;;5.13;;
40669;SDS011;26355;45.528;9.234;2023-06-04T14:33:53;14.23;;;5.82;;
40669;SDS011;26355;45.528;9.234;2023-06-04T14:36:18;12.52;;;4.68;;
40669;SDS011;26355;45.528;9.234;2023-06-04T14:38:44;11.85;;;4.75;;
40669;SDS011;26355;45.528;9.234;2023-06-04T14:41:10;13.63;;;5.07;;
40669;SDS011;26355;45.528;9.234;2023-06-04T14:43:36;14.80;;;5.13;;
40669;SDS011;26355;45.528;9.234;2023-06-04T14:46:02;16.50;;;6.63;;
40669;SDS011;26355;45.528;9.234;2023-06-04T14:48:28;14.77;;;5.80;;
40669;SDS011;26355;45.528;9.234;2023-06-04T14:50:54;14.63;;;6.25;;
40669;SDS011;26355;45.528;9.234;2023-06-04T14:53:20;13.38;;;5.78;;
40669;SDS011;26355;45.528;9.234;2023-06-04T14:55:47;14.30;;;5.60;;
40669;SDS011;26355;45.528;9.234;2023-06-04T14:58:12;15.30;;;5.93;;
40669;SDS011;26355;45.528;9.234;2023-06-04T15:00:39;14.73;;;6.43;;
40669;SDS011;26355;45.528;9.234;2023-06-04T15:03:04;14.25;;;5.82;;